Time;durP1;ratioP1;P1;durP2;ratioP2;P2;SDS_P1;SDS_P2;PMS_P1;PMS_P2;Temp;Humidity;BMP_temperature;BMP_pressure;BME280_temperature;BME280_humidity;BME280_pressure;Samples;Min_cycle;Max_cycle;Signal;HPM_P1;HPM_P2
2022/11/26 00:02:16;;;;;;;1.10;0.65;;;;;;;;;;5072319;28;20039;-64
2022/11/26 00:04:43;;;;;;;2.53;0.67;;;;;;;;;;5071782;28;20025;-64
2022/11/26 00:07:13;;;;;;;1.43;0.93;;;;;;;;;;5058995;28;20100;-64
2022/11/26 00:09:40;;;;;;;1.60;0.80;;;;;;;;;;5062944;28;20341;-64
2022/11/26 00:12:21;;;;;;;4.50;1.60;;;;;;;;;;5057421;28;20025;-64
2022/11/26 00:14:48;;;;;;;3.93;1.20;;;;;;;;;;5046721;28;20040;-63
2022/11/26 00:17:15;;;;;;;3.70;1.20;;;;;;;;;;5046392;28;20032;-63
2022/11/26 00:19:43;;;;;;;3.03;0.90;;;;;;;;;;5046504;28;20043;-63
2022/11/26 00:22:25;;;;;;;19.00;1.30;;;;;;;;;;5051008;28;20031;-63
2022/11/26 00:24:52;;;;;;;2.70;1.20;;;;;;;;;;5052028;28;20031;-63
2022/11/26 00:27:19;;;;;;;5.07;1.60;;;;;;;;;;5055737;28;20020;-63
2022/11/26 00:29:46;;;;;;;1.77;1.00;;;;;;;;;;5071421;28;20016;-63
2022/11/26 00:32:23;;;;;;;2.73;1.50;;;;;;;;;;5072072;28;20017;-63
2022/11/26 00:34:49;;;;;;;2.73;1.30;;;;;;;;;;5066676;28;20032;-63
2022/11/26 00:37:21;;;;;;;2.00;1.20;;;;;;;;;;5066603;28;20028;-63
2022/11/26 00:39:48;;;;;;;9.37;1.63;;;;;;;;;;5065644;28;20032;-62
2022/11/26 00:42:15;;;;;;;0.80;0.60;;;;;;;;;;5062525;28;20108;-63
2022/11/26 00:44:41;;;;;;;2.33;1.00;;;;;;;;;;5065909;28;20026;-63
2022/11/26 00:47:09;;;;;;;1.97;0.93;;;;;;;;;;5069872;28;20025;-63
2022/11/26 00:49:36;;;;;;;2.80;1.10;;;;;;;;;;5071307;28;20029;-63
2022/11/26 00:52:03;;;;;;;3.57;1.80;;;;;;;;;;5071747;28;20039;-63
2022/11/26 00:54:30;;;;;;;2.37;0.73;;;;;;;;;;5071817;28;20103;-63
2022/11/26 00:56:56;;;;;;;1.57;0.97;;;;;;;;;;5067183;28;20465;-63
2022/11/26 00:59:23;;;;;;;3.10;1.50;;;;;;;;;;5066088;28;20093;-63
2022/11/26 01:01:50;;;;;;;9.60;1.10;;;;;;;;;;5065999;28;20028;-64
2022/11/26 01:04:16;;;;;;;2.20;0.93;;;;;;;;;;5065958;28;20029;-62
2022/11/26 01:06:44;;;;;;;6.00;1.10;;;;;;;;;;5060271;28;20033;-63
2022/11/26 01:09:15;;;;;;;1.10;0.83;;;;;;;;;;5051736;28;20472;-63
2022/11/26 01:11:42;;;;;;;1.10;0.67;;;;;;;;;;5058250;28;20024;-63
2022/11/26 01:14:15;;;;;;;1.07;0.73;;;;;;;;;;5071717;28;20131;-62
2022/11/26 01:16:43;;;;;;;1.20;0.77;;;;;;;;;;5072675;28;20024;-64
2022/11/26 01:19:11;;;;;;;4.60;0.67;;;;;;;;;;5071281;28;20103;-63
2022/11/26 01:21:37;;;;;;;1.37;0.83;;;;;;;;;;5069830;28;20056;-63
2022/11/26 01:24:05;;;;;;;0.80;0.60;;;;;;;;;;5069374;28;20037;-62
2022/11/26 01:26:33;;;;;;;0.23;0.23;;;;;;;;;;5069875;28;20020;-63
2022/11/26 01:29:00;;;;;;;14.07;0.73;;;;;;;;;;5073067;28;20505;-63
2022/11/26 01:31:28;;;;;;;2.20;1.17;;;;;;;;;;5075139;28;20510;-63
2022/11/26 01:33:55;;;;;;;1.33;0.80;;;;;;;;;;5074582;28;20138;-63
2022/11/26 01:36:25;;;;;;;1.13;0.80;;;;;;;;;;5075190;28;20477;-63
2022/11/26 01:38:53;;;;;;;1.30;0.90;;;;;;;;;;5074593;28;20037;-63
2022/11/26 01:41:25;;;;;;;1.00;0.57;;;;;;;;;;5070983;28;20028;-63
2022/11/26 01:43:52;;;;;;;1.13;0.73;;;;;;;;;;5069284;28;20035;-63
2022/11/26 01:46:21;;;;;;;1.13;0.90;;;;;;;;;;5069746;28;20028;-63
2022/11/26 01:48:49;;;;;;;1.67;1.07;;;;;;;;;;5069216;28;20024;-63
2022/11/26 01:51:18;;;;;;;1.07;0.70;;;;;;;;;;5072519;28;20021;-63
2022/11/26 01:53:47;;;;;;;1.43;0.73;;;;;;;;;;5074854;28;20020;-63
2022/11/26 01:56:16;;;;;;;3.07;0.97;;;;;;;;;;5074457;28;20099;-63
2022/11/26 01:58:46;;;;;;;1.07;0.70;;;;;;;;;;5074711;28;20055;-63
2022/11/26 02:01:13;;;;;;;5.77;1.90;;;;;;;;;;5074385;28;20033;-63
2022/11/26 02:03:43;;;;;;;3.63;0.90;;;;;;;;;;5069786;28;20112;-64
2022/11/26 02:06:16;;;;;;;1.80;1.03;;;;;;;;;;5064390;28;20443;-64
2022/11/26 02:08:43;;;;;;;2.30;1.23;;;;;;;;;;5056543;28;20020;-63
2022/11/26 02:11:14;;;;;;;2.43;1.17;;;;;;;;;;5066110;28;20512;-62
2022/11/26 02:13:41;;;;;;;1.67;1.00;;;;;;;;;;5060921;28;20447;-63
2022/11/26 02:16:12;;;;;;;9.50;1.00;;;;;;;;;;5073515;28;20058;-62
2022/11/26 02:18:41;;;;;;;3.30;1.40;;;;;;;;;;5073809;28;20029;-63
2022/11/26 02:21:16;;;;;;;1.03;0.50;;;;;;;;;;5073173;28;20033;-62
2022/11/26 02:23:49;;;;;;;2.60;1.30;;;;;;;;;;5073227;28;20417;-62
2022/11/26 02:26:36;;;;;;;2.83;0.90;;;;;;;;;;5068920;28;20082;-63
2022/11/26 02:29:17;;;;;;;1.67;0.93;;;;;;;;;;5057949;28;20050;-63
2022/11/26 02:31:58;;;;;;;1.93;1.30;;;;;;;;;;5068905;28;20021;-63
2022/11/26 02:34:40;;;;;;;2.17;0.97;;;;;;;;;;5067644;28;20025;-64
2022/11/26 02:37:16;;;;;;;4.27;1.60;;;;;;;;;;5064444;28;20046;-63
2022/11/26 02:39:42;;;;;;;2.07;1.27;;;;;;;;;;5053899;28;20056;-63
2022/11/26 02:42:29;;;;;;;1.80;1.20;;;;;;;;;;5063568;28;20473;-62
2022/11/26 02:44:58;;;;;;;1.90;0.83;;;;;;;;;;5072865;28;20064;-63
2022/11/26 02:47:26;;;;;;;1.60;1.00;;;;;;;;;;5063167;28;20036;-63
2022/11/26 02:49:54;;;;;;;2.00;0.77;;;;;;;;;;5048584;28;20029;-62
2022/11/26 02:52:21;;;;;;;1.57;1.03;;;;;;;;;;5066716;28;20639;-63
2022/11/26 02:54:49;;;;;;;1.63;0.80;;;;;;;;;;5067903;28;20021;-63
2022/11/26 02:57:18;;;;;;;6.70;1.17;;;;;;;;;;5067234;28;20059;-62
2022/11/26 02:59:45;;;;;;;1.47;0.97;;;;;;;;;;5055645;28;20033;-63
2022/11/26 03:02:38;;;;;;;2.63;1.83;;;;;;;;;;5072405;28;20071;-63
2022/11/26 03:05:06;;;;;;;2.87;1.63;;;;;;;;;;5071152;28;20115;-62
2022/11/26 03:07:34;;;;;;;2.27;1.73;;;;;;;;;;5059841;28;20028;-62
2022/11/26 03:10:02;;;;;;;4.40;2.03;;;;;;;;;;5071496;28;20067;-63
2022/11/26 03:12:29;;;;;;;2.47;1.10;;;;;;;;;;5054966;28;20025;-63
2022/11/26 03:14:56;;;;;;;2.03;1.43;;;;;;;;;;5047830;28;20025;-62
2022/11/26 03:17:22;;;;;;;3.63;1.70;;;;;;;;;;5048283;28;20637;-63
2022/11/26 03:19:49;;;;;;;2.10;1.27;;;;;;;;;;5062751;28;20127;-62
2022/11/26 03:22:16;;;;;;;2.83;1.50;;;;;;;;;;5067788;28;20028;-63
2022/11/26 03:24:42;;;;;;;1.80;1.20;;;;;;;;;;5072946;28;20071;-62
2022/11/26 03:27:09;;;;;;;5.63;1.30;;;;;;;;;;5072890;28;20024;-63
2022/11/26 03:29:36;;;;;;;1.10;0.80;;;;;;;;;;5072767;28;20025;-62
2022/11/26 03:32:03;;;;;;;3.97;1.07;;;;;;;;;;5071124;28;20028;-63
2022/11/26 03:34:29;;;;;;;1.03;0.77;;;;;;;;;;5066846;28;20117;-63
2022/11/26 03:36:56;;;;;;;3.13;0.73;;;;;;;;;;5067100;28;20028;-62
2022/11/26 03:39:22;;;;;;;1.10;0.80;;;;;;;;;;5066479;28;20047;-62
2022/11/26 03:41:49;;;;;;;1.17;0.77;;;;;;;;;;5067500;28;20024;-62
2022/11/26 03:44:16;;;;;;;3.20;1.10;;;;;;;;;;5072487;28;20039;-63
2022/11/26 03:46:42;;;;;;;2.13;1.33;;;;;;;;;;5068794;28;20032;-63
2022/11/26 03:49:09;;;;;;;4.37;1.37;;;;;;;;;;5072119;28;20060;-63
2022/11/26 03:51:36;;;;;;;1.27;0.40;;;;;;;;;;5060459;28;20034;-63
2022/11/26 03:54:02;;;;;;;1.37;0.87;;;;;;;;;;5061692;28;20048;-62
2022/11/26 03:56:29;;;;;;;1.87;1.23;;;;;;;;;;5063526;28;20020;-62
2022/11/26 03:58:56;;;;;;;2.37;1.10;;;;;;;;;;5059609;28;20083;-63
2022/11/26 04:01:22;;;;;;;1.23;0.90;;;;;;;;;;5047138;28;20025;-63
2022/11/26 04:03:49;;;;;;;0.90;0.60;;;;;;;;;;5051514;28;20100;-62
2022/11/26 04:06:16;;;;;;;3.60;1.53;;;;;;;;;;5065872;28;20082;-63
2022/11/26 04:08:42;;;;;;;0.97;0.80;;;;;;;;;;5065067;28;20032;-62
2022/11/26 04:11:09;;;;;;;2.07;0.70;;;;;;;;;;5064217;28;20430;-62
2022/11/26 04:13:35;;;;;;;1.33;0.87;;;;;;;;;;5055569;28;20028;-63
2022/11/26 04:16:02;;;;;;;2.30;1.23;;;;;;;;;;5071462;28;20479;-62
2022/11/26 04:18:29;;;;;;;1.10;0.83;;;;;;;;;;5065920;28;20058;-63
2022/11/26 04:20:55;;;;;;;1.13;0.70;;;;;;;;;;5066571;28;20036;-62
2022/11/26 04:23:22;;;;;;;0.80;0.70;;;;;;;;;;5063053;28;20039;-63
2022/11/26 04:25:49;;;;;;;1.10;0.90;;;;;;;;;;5055346;28;20046;-63
2022/11/26 04:28:15;;;;;;;7.70;1.47;;;;;;;;;;5070564;28;20020;-63
2022/11/26 04:30:42;;;;;;;6.30;1.33;;;;;;;;;;5071324;28;20127;-62
2022/11/26 04:33:09;;;;;;;1.83;1.07;;;;;;;;;;5071437;28;20360;-62
2022/11/26 04:35:37;;;;;;;1.10;0.63;;;;;;;;;;5071445;28;20027;-62
2022/11/26 04:38:03;;;;;;;1.47;1.07;;;;;;;;;;5072151;28;20055;-62
2022/11/26 04:40:30;;;;;;;1.00;0.77;;;;;;;;;;5067593;28;20421;-63
2022/11/26 04:42:57;;;;;;;0.50;0.50;;;;;;;;;;5065529;28;20029;-63
2022/11/26 04:45:23;;;;;;;1.67;0.90;;;;;;;;;;5065960;28;20383;-64
2022/11/26 04:47:50;;;;;;;1.13;0.90;;;;;;;;;;5066432;28;20029;-64
2022/11/26 04:50:17;;;;;;;1.10;0.80;;;;;;;;;;5069485;28;20016;-64
2022/11/26 04:52:47;;;;;;;1.17;0.93;;;;;;;;;;5074746;28;20487;-63
2022/11/26 04:55:14;;;;;;;1.43;0.97;;;;;;;;;;5075675;28;20024;-63
2022/11/26 04:57:41;;;;;;;1.20;0.93;;;;;;;;;;5075054;28;20017;-63
2022/11/26 05:00:08;;;;;;;1.60;0.93;;;;;;;;;;5074467;28;20036;-62
2022/11/26 05:02:34;;;;;;;1.30;0.93;;;;;;;;;;5070999;28;20111;-62
2022/11/26 05:05:01;;;;;;;1.57;0.97;;;;;;;;;;5070258;28;20026;-62
2022/11/26 05:07:28;;;;;;;2.50;1.33;;;;;;;;;;5069764;28;20028;-63
2022/11/26 05:09:54;;;;;;;1.60;0.93;;;;;;;;;;5069380;28;20086;-63
2022/11/26 05:12:21;;;;;;;1.57;1.10;;;;;;;;;;5071751;28;20021;-62
2022/11/26 05:14:47;;;;;;;3.70;0.83;;;;;;;;;;5075175;28;20029;-62
2022/11/26 05:17:14;;;;;;;1.73;0.90;;;;;;;;;;5074952;28;20078;-62
2022/11/26 05:19:41;;;;;;;2.60;1.30;;;;;;;;;;5075265;28;20036;-62
2022/11/26 05:22:07;;;;;;;1.40;0.77;;;;;;;;;;5074965;28;20029;-62
2022/11/26 05:24:36;;;;;;;2.30;1.40;;;;;;;;;;5072506;28;20031;-62
2022/11/26 05:27:03;;;;;;;2.13;1.23;;;;;;;;;;5069181;28;20032;-62
2022/11/26 05:29:30;;;;;;;1.03;0.73;;;;;;;;;;5069494;28;20037;-62
2022/11/26 05:31:57;;;;;;;4.37;1.53;;;;;;;;;;5069113;28;20155;-63
2022/11/26 05:34:23;;;;;;;0.87;0.60;;;;;;;;;;5067006;28;20035;-62
2022/11/26 05:36:50;;;;;;;1.10;0.90;;;;;;;;;;5074560;28;20033;-62
2022/11/26 05:39:17;;;;;;;1.27;1.10;;;;;;;;;;5066535;28;20036;-62
2022/11/26 05:41:43;;;;;;;1.07;0.93;;;;;;;;;;5073342;28;20046;-62
2022/11/26 05:44:10;;;;;;;1.90;1.10;;;;;;;;;;5074636;28;20020;-62
2022/11/26 05:46:39;;;;;;;2.70;1.67;;;;;;;;;;5073250;28;20045;-62
2022/11/26 05:49:06;;;;;;;3.23;1.10;;;;;;;;;;5068908;28;20553;-63
2022/11/26 05:51:33;;;;;;;2.03;0.90;;;;;;;;;;5069261;28;20025;-62
2022/11/26 05:53:59;;;;;;;4.27;1.60;;;;;;;;;;5069066;28;20502;-62
2022/11/26 05:56:26;;;;;;;2.00;0.87;;;;;;;;;;5069236;28;20028;-62
2022/11/26 05:58:53;;;;;;;0.40;0.30;;;;;;;;;;5074583;28;20032;-62
2022/11/26 06:01:19;;;;;;;1.87;1.10;;;;;;;;;;5074602;28;20063;-62
2022/11/26 06:03:46;;;;;;;1.10;0.90;;;;;;;;;;5074265;28;20027;-62
2022/11/26 06:06:13;;;;;;;1.73;1.33;;;;;;;;;;5074506;28;20036;-62
2022/11/26 06:08:39;;;;;;;2.03;1.00;;;;;;;;;;5073526;28;20025;-62
2022/11/26 06:11:06;;;;;;;0.87;0.77;;;;;;;;;;5068759;28;20081;-62
2022/11/26 06:13:33;;;;;;;0.97;0.70;;;;;;;;;;5068716;28;20031;-62
2022/11/26 06:15:59;;;;;;;2.00;0.97;;;;;;;;;;5068551;28;20025;-62
2022/11/26 06:18:26;;;;;;;1.33;1.03;;;;;;;;;;5068643;28;20025;-62
2022/11/26 06:20:53;;;;;;;0.97;0.87;;;;;;;;;;5074324;28;20484;-62
2022/11/26 06:23:20;;;;;;;0.87;0.70;;;;;;;;;;5073789;28;20110;-63
2022/11/26 06:25:47;;;;;;;2.10;1.47;;;;;;;;;;5073696;28;20041;-62
2022/11/26 06:28:13;;;;;;;1.40;1.10;;;;;;;;;;5074233;28;20109;-63
2022/11/26 06:30:40;;;;;;;2.40;1.40;;;;;;;;;;5074052;28;20028;-62
2022/11/26 06:33:07;;;;;;;3.53;1.43;;;;;;;;;;5068110;28;20099;-62
2022/11/26 06:35:34;;;;;;;0.83;0.70;;;;;;;;;;5068592;28;20074;-63
2022/11/26 06:38:00;;;;;;;2.63;1.27;;;;;;;;;;5068659;28;20377;-62
2022/11/26 06:40:27;;;;;;;3.07;2.17;;;;;;;;;;5068344;28;20910;-62
2022/11/26 06:42:54;;;;;;;3.60;1.70;;;;;;;;;;5072690;28;20027;-62
2022/11/26 06:45:21;;;;;;;0.73;0.57;;;;;;;;;;5073725;28;20024;-62
2022/11/26 06:47:49;;;;;;;1.23;0.90;;;;;;;;;;5073745;28;20454;-62
2022/11/26 06:50:17;;;;;;;5.53;1.67;;;;;;;;;;5073394;28;20031;-62
2022/11/26 06:52:43;;;;;;;1.70;0.80;;;;;;;;;;5073537;28;20491;-62
2022/11/26 06:55:10;;;;;;;1.13;1.03;;;;;;;;;;5068851;28;20111;-62
2022/11/26 06:57:37;;;;;;;1.70;0.90;;;;;;;;;;5067955;28;20025;-62
2022/11/26 07:00:05;;;;;;;1.13;0.93;;;;;;;;;;5067641;28;20040;-63
2022/11/26 07:02:31;;;;;;;0.73;0.60;;;;;;;;;;5067757;28;20032;-62
2022/11/26 07:04:58;;;;;;;1.70;1.17;;;;;;;;;;5071548;28;20028;-62
2022/11/26 07:07:25;;;;;;;1.33;0.90;;;;;;;;;;5073445;28;20028;-62
2022/11/26 07:09:51;;;;;;;2.30;1.57;;;;;;;;;;5072911;28;20032;-62
2022/11/26 07:12:18;;;;;;;1.20;0.90;;;;;;;;;;5073412;28;20021;-62
2022/11/26 07:14:44;;;;;;;0.73;0.60;;;;;;;;;;5072616;28;20020;-62
2022/11/26 07:17:11;;;;;;;1.43;1.00;;;;;;;;;;5069194;28;20024;-62
2022/11/26 07:19:38;;;;;;;0.67;0.60;;;;;;;;;;5067436;28;20054;-62
2022/11/26 07:22:04;;;;;;;0.73;0.57;;;;;;;;;;5067201;28;20082;-63
2022/11/26 07:24:31;;;;;;;2.90;1.37;;;;;;;;;;5067445;28;20484;-62
2022/11/26 07:26:58;;;;;;;3.00;1.97;;;;;;;;;;5070303;28;20028;-62
2022/11/26 07:29:24;;;;;;;2.23;1.23;;;;;;;;;;5073032;28;20024;-62
2022/11/26 07:31:51;;;;;;;2.63;1.63;;;;;;;;;;5072548;28;20099;-62
2022/11/26 07:34:17;;;;;;;3.27;1.27;;;;;;;;;;5072545;28;20055;-62
2022/11/26 07:36:44;;;;;;;0.93;0.70;;;;;;;;;;5072889;28;20375;-62
2022/11/26 07:39:11;;;;;;;1.80;1.20;;;;;;;;;;5070466;28;20134;-62
2022/11/26 07:41:38;;;;;;;2.43;0.90;;;;;;;;;;5066793;28;20388;-62
2022/11/26 07:44:04;;;;;;;2.33;1.27;;;;;;;;;;5067141;28;20032;-62
2022/11/26 07:46:31;;;;;;;2.47;1.13;;;;;;;;;;5067095;28;20028;-62
2022/11/26 07:48:57;;;;;;;4.77;1.67;;;;;;;;;;5067710;28;20024;-62
2022/11/26 07:51:28;;;;;;;1.37;1.23;;;;;;;;;;5072210;28;20017;-62
2022/11/26 07:53:55;;;;;;;1.47;1.13;;;;;;;;;;5072793;28;20079;-62
2022/11/26 07:56:22;;;;;;;2.20;1.40;;;;;;;;;;5072316;28;20048;-62
2022/11/26 07:58:49;;;;;;;0.87;0.73;;;;;;;;;;5072130;28;20074;-61
2022/11/26 08:01:20;;;;;;;1.13;0.90;;;;;;;;;;5071590;28;20024;-62
2022/11/26 08:03:47;;;;;;;1.73;1.10;;;;;;;;;;5066775;28;20041;-62
2022/11/26 08:06:16;;;;;;;5.37;0.93;;;;;;;;;;5066634;28;20506;-62
2022/11/26 08:08:43;;;;;;;1.37;0.80;;;;;;;;;;5066735;28;20048;-61
2022/11/26 08:11:17;;;;;;;0.83;0.70;;;;;;;;;;5066765;28;20428;-62
2022/11/26 08:13:44;;;;;;;3.13;1.77;;;;;;;;;;5072150;28;20414;-62
2022/11/26 08:16:11;;;;;;;1.70;1.03;;;;;;;;;;5072138;28;20042;-62
2022/11/26 08:18:38;;;;;;;1.10;0.90;;;;;;;;;;5072125;28;20025;-62
2022/11/26 08:21:05;;;;;;;1.00;0.90;;;;;;;;;;5071519;28;20078;-62
2022/11/26 08:23:32;;;;;;;1.13;0.87;;;;;;;;;;5072366;28;20021;-62
2022/11/26 08:25:58;;;;;;;2.40;1.40;;;;;;;;;;5066300;28;20565;-62
2022/11/26 08:28:25;;;;;;;9.23;0.87;;;;;;;;;;5066631;28;20406;-63
2022/11/26 08:31:00;;;;;;;1.03;0.83;;;;;;;;;;5048241;28;20388;-62
2022/11/26 08:33:27;;;;;;;1.13;0.75;;;;;;;;;;5066454;28;20050;-62
2022/11/26 08:35:56;;;;;;;1.10;0.90;;;;;;;;;;5071322;28;20024;-63
2022/11/26 08:38:23;;;;;;;1.23;0.83;;;;;;;;;;5072121;28;20038;-62
2022/11/26 08:40:50;;;;;;;1.80;1.23;;;;;;;;;;5071347;28;20479;-62
2022/11/26 08:43:17;;;;;;;0.90;0.60;;;;;;;;;;5072025;28;20027;-62
2022/11/26 08:45:44;;;;;;;3.53;1.50;;;;;;;;;;5072088;28;20040;-62
2022/11/26 08:48:12;;;;;;;0.50;0.40;;;;;;;;;;5072229;28;20031;-61
2022/11/26 08:50:38;;;;;;;1.57;1.07;;;;;;;;;;5072014;28;20043;-62
2022/11/26 08:53:05;;;;;;;2.93;0.80;;;;;;;;;;5072171;28;20475;-62
2022/11/26 08:55:32;;;;;;;1.90;1.20;;;;;;;;;;5066765;28;20488;-63
2022/11/26 08:57:58;;;;;;;5.17;1.30;;;;;;;;;;5065859;28;20357;-62
2022/11/26 09:00:25;;;;;;;1.83;1.10;;;;;;;;;;5066324;28;20047;-62
2022/11/26 09:02:52;;;;;;;1.10;0.87;;;;;;;;;;5066094;28;20021;-62
2022/11/26 09:05:18;;;;;;;1.07;0.80;;;;;;;;;;5070567;28;20064;-62
2022/11/26 09:07:46;;;;;;;0.47;0.30;;;;;;;;;;5071761;28;20021;-62
2022/11/26 09:10:12;;;;;;;1.07;0.73;;;;;;;;;;5071578;28;20016;-62
2022/11/26 09:12:39;;;;;;;1.07;0.70;;;;;;;;;;5071291;28;20028;-62
2022/11/26 09:15:06;;;;;;;0.87;0.60;;;;;;;;;;5071689;28;20029;-62
2022/11/26 09:17:32;;;;;;;0.60;0.50;;;;;;;;;;5067038;28;20043;-62
2022/11/26 09:19:59;;;;;;;8.90;1.30;;;;;;;;;;5065834;28;20033;-62
2022/11/26 09:22:26;;;;;;;1.07;0.70;;;;;;;;;;5065611;28;20033;-61
2022/11/26 09:24:53;;;;;;;1.10;0.83;;;;;;;;;;5065828;28;20033;-62
2022/11/26 09:27:19;;;;;;;1.73;1.30;;;;;;;;;;5069408;28;20032;-62
2022/11/26 09:29:46;;;;;;;0.67;0.60;;;;;;;;;;5071205;28;21266;-61
2022/11/26 09:32:12;;;;;;;2.27;1.17;;;;;;;;;;5071171;28;20056;-62
2022/11/26 09:34:39;;;;;;;3.13;1.17;;;;;;;;;;5071715;28;20028;-62
2022/11/26 09:37:06;;;;;;;1.53;0.67;;;;;;;;;;5071823;28;20101;-62
2022/11/26 09:39:33;;;;;;;0.20;0.20;;;;;;;;;;5070942;28;20050;-62
2022/11/26 09:42:23;;;;;;;1.57;1.27;;;;;;;;;;5069294;28;20451;-62
2022/11/26 09:45:00;;;;;;;1.90;1.17;;;;;;;;;;5069533;28;20028;-62
2022/11/26 09:47:27;;;;;;;2.80;1.33;;;;;;;;;;5069002;28;20104;-62
2022/11/26 09:50:07;;;;;;;1.80;1.23;;;;;;;;;;5073121;28;20028;-61
2022/11/26 09:52:40;;;;;;;1.60;0.93;;;;;;;;;;5074590;28;20029;-62
2022/11/26 09:55:12;;;;;;;1.40;0.97;;;;;;;;;;5074577;28;20033;-62
2022/11/26 09:57:43;;;;;;;1.10;0.90;;;;;;;;;;5074607;28;20498;-61
2022/11/26 10:00:20;;;;;;;5.40;1.03;;;;;;;;;;5074551;28;20028;-61
2022/11/26 10:02:46;;;;;;;1.80;0.97;;;;;;;;;;5068762;28;20488;-62
2022/11/26 10:05:13;;;;;;;1.13;0.80;;;;;;;;;;5069084;28;20494;-61
2022/11/26 10:07:40;;;;;;;2.07;1.27;;;;;;;;;;5069080;28;20098;-62
2022/11/26 10:10:30;;;;;;;2.03;1.20;;;;;;;;;;5068549;28;20087;-61
2022/11/26 10:13:15;;;;;;;0.70;0.60;;;;;;;;;;5074325;28;20020;-61
2022/11/26 10:15:49;;;;;;;1.30;0.93;;;;;;;;;;5074455;28;20021;-61
2022/11/26 10:18:15;;;;;;;0.20;0.20;;;;;;;;;;5074544;28;20108;-62
2022/11/26 10:21:00;;;;;;;1.30;1.07;;;;;;;;;;5074380;28;20442;-61
2022/11/26 10:23:30;;;;;;;1.60;1.00;;;;;;;;;;5071881;28;20020;-62
2022/11/26 10:26:06;;;;;;;2.60;1.07;;;;;;;;;;5068896;28;20090;-61
2022/11/26 10:28:38;;;;;;;0.40;0.40;;;;;;;;;;5068091;28;20037;-61
2022/11/26 10:31:09;;;;;;;0.60;0.47;;;;;;;;;;5068638;28;20052;-62
2022/11/26 10:33:45;;;;;;;0.63;0.50;;;;;;;;;;5070352;28;20024;-62
2022/11/26 10:36:18;;;;;;;1.33;0.70;;;;;;;;;;5074123;28;20361;-61
2022/11/26 10:38:44;;;;;;;1.23;0.80;;;;;;;;;;5074128;28;20099;-62
2022/11/26 10:41:11;;;;;;;3.23;1.53;;;;;;;;;;5073803;28;20032;-61
2022/11/26 10:43:38;;;;;;;1.40;1.13;;;;;;;;;;5074045;28;20056;-62
2022/11/26 10:46:04;;;;;;;2.10;1.20;;;;;;;;;;5070871;28;20024;-62
2022/11/26 10:48:32;;;;;;;1.83;1.27;;;;;;;;;;5067006;28;20035;-62
2022/11/26 10:51:27;;;;;;;1.40;1.20;;;;;;;;;;5067848;28;20036;-62
2022/11/26 10:54:06;;;;;;;3.20;2.17;;;;;;;;;;5068125;28;20021;-61
2022/11/26 10:56:39;;;;;;;0.83;0.83;;;;;;;;;;5071595;28;20052;-61
2022/11/26 10:59:13;;;;;;;1.20;0.93;;;;;;;;;;5073617;28;20498;-61
2022/11/26 11:01:41;;;;;;;3.40;1.85;;;;;;;;;;5073587;28;20485;-61
2022/11/26 11:04:18;;;;;;;1.93;1.30;;;;;;;;;;5073485;28;20024;-61
2022/11/26 11:06:45;;;;;;;1.90;1.30;;;;;;;;;;5072835;28;20091;-62
2022/11/26 11:09:27;;;;;;;1.40;1.00;;;;;;;;;;5068174;28;20017;-61
2022/11/26 11:12:14;;;;;;;1.87;1.23;;;;;;;;;;5067520;28;20047;-61
2022/11/26 11:14:40;;;;;;;1.00;0.77;;;;;;;;;;5067452;28;20104;-61
2022/11/26 11:17:18;;;;;;;1.47;1.07;;;;;;;;;;5067715;28;20066;-61
2022/11/26 11:19:45;;;;;;;1.20;1.00;;;;;;;;;;5072947;28;20095;-61
2022/11/26 11:22:21;;;;;;;0.57;0.57;;;;;;;;;;5073006;28;20082;-62
2022/11/26 11:24:48;;;;;;;1.33;1.13;;;;;;;;;;5073118;28;20023;-61
2022/11/26 11:27:47;;;;;;;0.90;0.70;;;;;;;;;;5072527;28;20033;-61
2022/11/26 11:30:26;;;;;;;1.10;0.77;;;;;;;;;;5015917;28;20135;-62
2022/11/26 11:32:57;;;;;;;1.00;0.80;;;;;;;;;;5067151;28;20353;-61
2022/11/26 11:35:30;;;;;;;1.13;0.80;;;;;;;;;;5067291;28;20017;-62
2022/11/26 11:37:57;;;;;;;1.07;0.93;;;;;;;;;;5067177;28;20024;-61
2022/11/26 11:40:26;;;;;;;1.73;1.33;;;;;;;;;;5068827;28;20038;-62
2022/11/26 11:42:58;;;;;;;1.30;0.87;;;;;;;;;;5072677;28;20017;-62
2022/11/26 11:45:33;;;;;;;1.10;0.80;;;;;;;;;;5072438;28;20094;-61
2022/11/26 11:48:26;;;;;;;2.00;1.23;;;;;;;;;;5072622;28;20025;-61
2022/11/26 11:50:58;;;;;;;1.57;1.23;;;;;;;;;;5034709;28;20090;-61
2022/11/26 11:53:34;;;;;;;1.97;1.40;;;;;;;;;;5067839;28;20032;-62
2022/11/26 11:56:19;;;;;;;5.97;1.07;;;;;;;;;;5066851;28;20127;-61
2022/11/26 11:58:45;;;;;;;4.40;1.35;;;;;;;;;;5066895;28;20052;-61
2022/11/26 12:01:31;;;;;;;3.17;1.60;;;;;;;;;;5066633;28;20032;-61
2022/11/26 12:04:00;;;;;;;2.50;1.70;;;;;;;;;;5071610;28;20020;-61
2022/11/26 12:06:45;;;;;;;1.93;1.50;;;;;;;;;;5072488;28;20506;-61
2022/11/26 12:09:12;;;;;;;2.25;1.50;;;;;;;;;;5072449;28;20066;-61
2022/11/26 12:11:38;;;;;;;31.73;3.37;;;;;;;;;;5072076;28;20473;-61
2022/11/26 12:14:22;;;;;;;4.27;2.07;;;;;;;;;;5071984;28;20016;-61
2022/11/26 12:16:50;;;;;;;2.57;1.53;;;;;;;;;;5066729;28;20020;-61
2022/11/26 12:19:36;;;;;;;5.35;1.80;;;;;;;;;;5066746;28;20027;-61
2022/11/26 12:22:26;;;;;;;3.17;2.22;;;;;;;;;;5066206;28;20048;-61
2022/11/26 12:24:58;;;;;;;3.10;2.07;;;;;;;;;;5068285;28;20047;-61
2022/11/26 12:27:37;;;;;;;1.67;1.20;;;;;;;;;;5072002;28;20086;-61
2022/11/26 12:30:07;;;;;;;2.73;1.43;;;;;;;;;;5071598;28;20034;-62
2022/11/26 12:32:37;;;;;;;1.97;1.17;;;;;;;;;;5072134;28;20050;-61
2022/11/26 12:35:06;;;;;;;3.33;1.40;;;;;;;;;;5072006;28;20094;-61
2022/11/26 12:37:42;;;;;;;2.67;1.80;;;;;;;;;;5069106;28;20108;-62
2022/11/26 12:40:12;;;;;;;3.17;2.10;;;;;;;;;;5066149;28;20115;-61
2022/11/26 12:42:51;;;;;;;3.67;2.00;;;;;;;;;;5066498;28;20024;-61
2022/11/26 12:45:36;;;;;;;1.43;1.33;;;;;;;;;;5066717;28;20028;-61
2022/11/26 12:48:07;;;;;;;3.90;1.85;;;;;;;;;;5069769;28;20023;-61
2022/11/26 12:50:44;;;;;;;2.10;1.57;;;;;;;;;;5071655;28;20036;-61
2022/11/26 12:53:24;;;;;;;1.40;1.30;;;;;;;;;;5071873;28;20027;-61
2022/11/26 12:55:57;;;;;;;1.77;1.10;;;;;;;;;;5071898;28;20061;-61
2022/11/26 12:58:42;;;;;;;3.77;1.57;;;;;;;;;;5071537;28;20379;-61
2022/11/26 13:01:09;;;;;;;3.30;1.42;;;;;;;;;;5066178;28;20062;-61
2022/11/26 13:03:36;;;;;;;2.67;1.40;;;;;;;;;;5066437;28;20389;-61
2022/11/26 13:06:19;;;;;;;4.57;1.77;;;;;;;;;;5066131;28;20021;-61
2022/11/26 13:08:48;;;;;;;5.17;1.80;;;;;;;;;;5065332;28;20039;-62
2022/11/26 13:11:36;;;;;;;1.47;1.27;;;;;;;;;;5072043;28;20047;-61
2022/11/26 13:28:31;;;;;;;3.30;1.60;;;;;;;;;;5149491;27;20367;-60
2022/11/26 13:31:16;;;;;;;4.07;1.70;;;;;;;;;;5058602;27;2083046;-58
2022/11/26 13:34:02;;;;;;;1.88;1.38;;;;;;;;;;5104206;28;20068;-58
2022/11/26 13:36:28;;;;;;;2.00;1.55;;;;;;;;;;5104224;28;20089;-59
2022/11/26 13:39:13;;;;;;;3.33;1.87;;;;;;;;;;5105161;28;20088;-58
2022/11/26 13:41:40;;;;;;;3.65;1.88;;;;;;;;;;5109417;28;20426;-59
2022/11/26 13:44:07;;;;;;;5.37;2.60;;;;;;;;;;5109698;28;20102;-58
2022/11/26 13:46:33;;;;;;;3.67;2.70;;;;;;;;;;5109549;28;20032;-59
2022/11/26 13:49:09;;;;;;;4.27;3.07;;;;;;;;;;5109303;28;20024;-58
2022/11/26 13:51:48;;;;;;;5.53;2.87;;;;;;;;;;5106610;28;20551;-59
2022/11/26 13:54:18;;;;;;;2.80;2.07;;;;;;;;;;5103856;28;20027;-59
2022/11/26 13:56:45;;;;;;;6.03;2.30;;;;;;;;;;5103582;28;20023;-59
2022/11/26 13:59:17;;;;;;;4.50;2.23;;;;;;;;;;5103544;28;20032;-59
2022/11/26 14:01:44;;;;;;;5.43;2.90;;;;;;;;;;5106270;28;20038;-59
2022/11/26 14:04:22;;;;;;;6.53;2.60;;;;;;;;;;5108790;28;20103;-59
2022/11/26 14:07:04;;;;;;;4.03;2.47;;;;;;;;;;5109273;28;20093;-59
2022/11/26 14:09:43;;;;;;;6.13;2.63;;;;;;;;;;5108005;28;20440;-60
2022/11/26 14:12:10;;;;;;;4.67;2.43;;;;;;;;;;5105100;28;20031;-60
2022/11/26 14:14:38;;;;;;;4.50;2.60;;;;;;;;;;5104231;28;20024;-59
2022/11/26 14:17:04;;;;;;;7.70;3.43;;;;;;;;;;5102876;28;20044;-59
2022/11/26 14:19:43;;;;;;;7.27;3.73;;;;;;;;;;5103655;28;20478;-59
2022/11/26 14:22:22;;;;;;;3.17;2.40;;;;;;;;;;5102166;28;20024;-59
2022/11/26 14:24:51;;;;;;;6.73;3.53;;;;;;;;;;5107734;28;20023;-59
2022/11/26 14:27:18;;;;;;;8.47;3.27;;;;;;;;;;5105527;28;20035;-59
2022/11/26 14:29:46;;;;;;;6.57;3.60;;;;;;;;;;5095327;28;20058;-59
2022/11/26 14:32:20;;;;;;;4.93;3.23;;;;;;;;;;5094793;28;20036;-59
2022/11/26 14:34:49;;;;;;;16.93;3.60;;;;;;;;;;5095083;28;20020;-62
2022/11/26 14:37:18;;;;;;;6.43;3.17;;;;;;;;;;5089330;28;20475;-62
2022/11/26 14:39:44;;;;;;;6.53;2.63;;;;;;;;;;5089341;28;20028;-62
2022/11/26 14:42:15;;;;;;;4.07;2.90;;;;;;;;;;5088987;28;20039;-61
2022/11/26 14:44:42;;;;;;;4.10;2.80;;;;;;;;;;5088936;28;20024;-62
2022/11/26 14:47:11;;;;;;;5.43;3.53;;;;;;;;;;5093657;28;20066;-62
2022/11/26 14:49:37;;;;;;;4.40;3.13;;;;;;;;;;5094183;28;20028;-62
2022/11/26 14:52:16;;;;;;;5.80;3.40;;;;;;;;;;5094850;28;20374;-61
2022/11/26 14:54:46;;;;;;;5.47;3.57;;;;;;;;;;5094434;28;20112;-62
2022/11/26 14:57:15;;;;;;;7.47;3.30;;;;;;;;;;5094616;28;20475;-62
2022/11/26 14:59:58;;;;;;;7.17;3.40;;;;;;;;;;5087851;28;20389;-62
2022/11/26 15:02:26;;;;;;;5.03;2.83;;;;;;;;;;5089053;28;20373;-62
2022/11/26 15:05:11;;;;;;;4.00;2.77;;;;;;;;;;5088844;28;20032;-62
2022/11/26 15:07:38;;;;;;;5.88;2.58;;;;;;;;;;5089500;28;20032;-62
2022/11/26 15:10:17;;;;;;;5.03;3.40;;;;;;;;;;5094277;28;20052;-62
2022/11/26 15:12:45;;;;;;;5.20;3.03;;;;;;;;;;5094330;28;20086;-59
2022/11/26 15:15:14;;;;;;;4.50;2.70;;;;;;;;;;5094415;28;20412;-59